sensor_id;sensor_type;location;lat;lon;timestamp;P1;durP1;ratioP1;P2;durP2;ratioP2
15667;SDS011;7934;48.710;9.024;2023-04-01T00:00:26;2.33;;;0.90;;
15667;SDS011;7934;48.710;9.024;2023-04-01T00:02:53;3.30;;;1.50;;
15667;SDS011;7934;48.710;9.024;2023-04-01T00:05:20;4.68;;;1.23;;
15667;SDS011;7934;48.710;9.024;2023-04-01T00:07:49;3.72;;;1.10;;
15667;SDS011;7934;48.710;9.024;2023-04-01T00:10:17;3.58;;;1.25;;
15667;SDS011;7934;48.710;9.024;2023-04-01T00:12:44;3.30;;;1.20;;
15667;SDS011;7934;48.710;9.024;2023-04-01T00:15:11;3.85;;;1.20;;
15667;SDS011;7934;48.710;9.024;2023-04-01T00:17:40;2.42;;;1.13;;
15667;SDS011;7934;48.710;9.024;2023-04-01T00:20:07;3.30;;;1.00;;
15667;SDS011;7934;48.710;9.024;2023-04-01T00:22:35;2.45;;;1.15;;
15667;SDS011;7934;48.710;9.024;2023-04-01T00:25:02;3.30;;;1.17;;
15667;SDS011;7934;48.710;9.024;2023-04-01T00:27:29;3.25;;;0.95;;
15667;SDS011;7934;48.710;9.024;2023-04-01T00:29:56;4.22;;;1.10;;
15667;SDS011;7934;48.710;9.024;2023-04-01T00:32:24;2.15;;;1.20;;
15667;SDS011;7934;48.710;9.024;2023-04-01T00:34:53;3.10;;;1.10;;
15667;SDS011;7934;48.710;9.024;2023-04-01T00:37:20;3.20;;;1.27;;
15667;SDS011;7934;48.710;9.024;2023-04-01T00:39:47;3.33;;;1.20;;
15667;SDS011;7934;48.710;9.024;2023-04-01T00:42:15;7.72;;;1.48;;
15667;SDS011;7934;48.710;9.024;2023-04-01T00:44:44;1.85;;;1.20;;
15667;SDS011;7934;48.710;9.024;2023-04-01T00:47:11;1.85;;;0.93;;
15667;SDS011;7934;48.710;9.024;2023-04-01T00:49:40;2.00;;;1.17;;
15667;SDS011;7934;48.710;9.024;2023-04-01T00:52:11;3.03;;;1.13;;
15667;SDS011;7934;48.710;9.024;2023-04-01T00:54:38;4.35;;;1.25;;
15667;SDS011;7934;48.710;9.024;2023-04-01T00:57:08;3.17;;;1.23;;
15667;SDS011;7934;48.710;9.024;2023-04-01T00:59:37;4.53;;;1.30;;
15667;SDS011;7934;48.710;9.024;2023-04-01T01:02:07;3.70;;;1.20;;
15667;SDS011;7934;48.710;9.024;2023-04-01T01:04:35;3.22;;;1.15;;
15667;SDS011;7934;48.710;9.024;2023-04-01T01:07:05;2.97;;;1.45;;
15667;SDS011;7934;48.710;9.024;2023-04-01T01:09:40;5.10;;;1.40;;
15667;SDS011;7934;48.710;9.024;2023-04-01T01:12:11;1.80;;;1.10;;
15667;SDS011;7934;48.710;9.024;2023-04-01T01:14:44;4.33;;;1.37;;
15667;SDS011;7934;48.710;9.024;2023-04-01T01:17:13;1.90;;;1.10;;
15667;SDS011;7934;48.710;9.024;2023-04-01T01:25:30;3.72;;;0.98;;
15667;SDS011;7934;48.710;9.024;2023-04-01T01:28:01;3.65;;;1.20;;
15667;SDS011;7934;48.710;9.024;2023-04-01T01:30:40;4.77;;;1.20;;
15667;SDS011;7934;48.710;9.024;2023-04-01T01:33:13;2.45;;;1.25;;
15667;SDS011;7934;48.710;9.024;2023-04-01T01:35:46;2.00;;;1.10;;
15667;SDS011;7934;48.710;9.024;2023-04-01T01:38:14;3.40;;;1.20;;
15667;SDS011;7934;48.710;9.024;2023-04-01T01:40:43;1.60;;;1.00;;
15667;SDS011;7934;48.710;9.024;2023-04-01T01:43:11;4.10;;;1.25;;
15667;SDS011;7934;48.710;9.024;2023-04-01T01:45:40;2.40;;;1.00;;
15667;SDS011;7934;48.710;9.024;2023-04-01T01:48:09;2.30;;;0.70;;
15667;SDS011;7934;48.710;9.024;2023-04-01T01:50:37;5.15;;;0.90;;
15667;SDS011;7934;48.710;9.024;2023-04-01T01:53:08;2.80;;;1.10;;
15667;SDS011;7934;48.710;9.024;2023-04-01T01:55:36;4.45;;;1.10;;
15667;SDS011;7934;48.710;9.024;2023-04-01T01:58:05;3.20;;;1.10;;
15667;SDS011;7934;48.710;9.024;2023-04-01T02:00:34;7.00;;;1.23;;
15667;SDS011;7934;48.710;9.024;2023-04-01T02:03:02;6.63;;;1.10;;
15667;SDS011;7934;48.710;9.024;2023-04-01T02:05:30;2.05;;;1.13;;
15667;SDS011;7934;48.710;9.024;2023-04-01T02:08:00;1.25;;;0.70;;
15667;SDS011;7934;48.710;9.024;2023-04-01T02:10:29;3.50;;;0.95;;
15667;SDS011;7934;48.710;9.024;2023-04-01T02:12:59;2.22;;;0.70;;
15667;SDS011;7934;48.710;9.024;2023-04-01T02:15:28;1.80;;;0.70;;
15667;SDS011;7934;48.710;9.024;2023-04-01T02:17:58;1.08;;;0.73;;
15667;SDS011;7934;48.710;9.024;2023-04-01T02:20:25;2.17;;;0.95;;
15667;SDS011;7934;48.710;9.024;2023-04-01T02:22:54;1.63;;;0.70;;
15667;SDS011;7934;48.710;9.024;2023-04-01T02:25:25;2.67;;;0.73;;
15667;SDS011;7934;48.710;9.024;2023-04-01T02:27:55;0.73;;;0.50;;
15667;SDS011;7934;48.710;9.024;2023-04-01T02:30:23;0.80;;;0.57;;
15667;SDS011;7934;48.710;9.024;2023-04-01T02:32:52;1.23;;;0.50;;
15667;SDS011;7934;48.710;9.024;2023-04-01T02:35:20;2.80;;;0.60;;
15667;SDS011;7934;48.710;9.024;2023-04-01T02:37:48;1.10;;;0.60;;
15667;SDS011;7934;48.710;9.024;2023-04-01T02:40:16;1.77;;;0.50;;
15667;SDS011;7934;48.710;9.024;2023-04-01T02:42:43;0.63;;;0.50;;
15667;SDS011;7934;48.710;9.024;2023-04-01T02:45:13;1.85;;;0.65;;
15667;SDS011;7934;48.710;9.024;2023-04-01T02:47:40;0.65;;;0.60;;
15667;SDS011;7934;48.710;9.024;2023-04-01T02:50:07;2.80;;;0.50;;
15667;SDS011;7934;48.710;9.024;2023-04-01T02:52:35;1.05;;;0.85;;
15667;SDS011;7934;48.710;9.024;2023-04-01T02:55:02;0.80;;;0.30;;
15667;SDS011;7934;48.710;9.024;2023-04-01T02:57:29;0.90;;;0.50;;
15667;SDS011;7934;48.710;9.024;2023-04-01T02:59:56;0.80;;;0.50;;
15667;SDS011;7934;48.710;9.024;2023-04-01T03:02:25;2.05;;;0.50;;
15667;SDS011;7934;48.710;9.024;2023-04-01T03:04:52;1.88;;;0.68;;
15667;SDS011;7934;48.710;9.024;2023-04-01T03:07:19;1.45;;;0.60;;
15667;SDS011;7934;48.710;9.024;2023-04-01T03:09:46;1.40;;;0.50;;
15667;SDS011;7934;48.710;9.024;2023-04-01T03:12:13;1.85;;;0.68;;
15667;SDS011;7934;48.710;9.024;2023-04-01T03:14:41;0.45;;;0.38;;
15667;SDS011;7934;48.710;9.024;2023-04-01T03:17:08;1.40;;;0.73;;
15667;SDS011;7934;48.710;9.024;2023-04-01T03:19:36;0.93;;;0.40;;
15667;SDS011;7934;48.710;9.024;2023-04-01T03:22:03;0.47;;;0.40;;
15667;SDS011;7934;48.710;9.024;2023-04-01T03:24:30;0.63;;;0.50;;
15667;SDS011;7934;48.710;9.024;2023-04-01T03:26:58;1.10;;;0.60;;
15667;SDS011;7934;48.710;9.024;2023-04-01T03:29:25;0.60;;;0.60;;
15667;SDS011;7934;48.710;9.024;2023-04-01T03:31:52;1.25;;;0.75;;
15667;SDS011;7934;48.710;9.024;2023-04-01T03:34:19;2.25;;;0.73;;
15667;SDS011;7934;48.710;9.024;2023-04-01T03:36:47;2.03;;;0.68;;
15667;SDS011;7934;48.710;9.024;2023-04-01T03:39:16;1.73;;;0.50;;
15667;SDS011;7934;48.710;9.024;2023-04-01T03:41:44;2.08;;;0.70;;
15667;SDS011;7934;48.710;9.024;2023-04-01T03:44:11;3.22;;;0.90;;
15667;SDS011;7934;48.710;9.024;2023-04-01T03:46:38;1.40;;;0.77;;
15667;SDS011;7934;48.710;9.024;2023-04-01T03:49:06;2.53;;;0.50;;
15667;SDS011;7934;48.710;9.024;2023-04-01T03:51:36;2.10;;;0.80;;
15667;SDS011;7934;48.710;9.024;2023-04-01T03:54:05;0.95;;;0.63;;
15667;SDS011;7934;48.710;9.024;2023-04-01T03:56:35;2.10;;;0.60;;
15667;SDS011;7934;48.710;9.024;2023-04-01T03:59:02;0.65;;;0.65;;
15667;SDS011;7934;48.710;9.024;2023-04-01T04:01:30;1.95;;;0.70;;
15667;SDS011;7934;48.710;9.024;2023-04-01T04:03:57;1.10;;;0.77;;
15667;SDS011;7934;48.710;9.024;2023-04-01T04:06:25;1.93;;;0.70;;
15667;SDS011;7934;48.710;9.024;2023-04-01T04:08:53;2.00;;;0.98;;
15667;SDS011;7934;48.710;9.024;2023-04-01T04:11:22;1.60;;;0.68;;
15667;SDS011;7934;48.710;9.024;2023-04-01T04:13:49;1.77;;;0.77;;
15667;SDS011;7934;48.710;9.024;2023-04-01T04:16:17;1.45;;;0.80;;
15667;SDS011;7934;48.710;9.024;2023-04-01T04:18:44;1.88;;;0.80;;
15667;SDS011;7934;48.710;9.024;2023-04-01T04:21:12;2.43;;;0.73;;
15667;SDS011;7934;48.710;9.024;2023-04-01T04:23:39;2.17;;;0.98;;
15667;SDS011;7934;48.710;9.024;2023-04-01T04:26:07;1.27;;;0.60;;
15667;SDS011;7934;48.710;9.024;2023-04-01T04:28:36;1.67;;;0.65;;
15667;SDS011;7934;48.710;9.024;2023-04-01T04:31:03;1.75;;;0.80;;
15667;SDS011;7934;48.710;9.024;2023-04-01T04:33:31;0.68;;;0.47;;
15667;SDS011;7934;48.710;9.024;2023-04-01T04:35:58;0.70;;;0.60;;
15667;SDS011;7934;48.710;9.024;2023-04-01T04:38:26;1.25;;;0.65;;
15667;SDS011;7934;48.710;9.024;2023-04-01T04:40:53;1.30;;;0.50;;
15667;SDS011;7934;48.710;9.024;2023-04-01T04:43:20;0.60;;;0.50;;
15667;SDS011;7934;48.710;9.024;2023-04-01T04:45:49;1.60;;;0.55;;
15667;SDS011;7934;48.710;9.024;2023-04-01T04:48:16;1.90;;;0.77;;
15667;SDS011;7934;48.710;9.024;2023-04-01T04:50:45;1.17;;;0.70;;
15667;SDS011;7934;48.710;9.024;2023-04-01T04:53:12;1.52;;;0.80;;
15667;SDS011;7934;48.710;9.024;2023-04-01T04:55:42;1.03;;;0.83;;
15667;SDS011;7934;48.710;9.024;2023-04-01T04:58:09;1.27;;;0.90;;
15667;SDS011;7934;48.710;9.024;2023-04-01T05:00:37;2.85;;;0.68;;
15667;SDS011;7934;48.710;9.024;2023-04-01T05:03:05;1.50;;;0.80;;
15667;SDS011;7934;48.710;9.024;2023-04-01T05:05:32;2.15;;;0.90;;
15667;SDS011;7934;48.710;9.024;2023-04-01T05:07:59;2.40;;;0.90;;
15667;SDS011;7934;48.710;9.024;2023-04-01T05:10:26;5.40;;;1.05;;
15667;SDS011;7934;48.710;9.024;2023-04-01T05:12:54;2.80;;;0.98;;
15667;SDS011;7934;48.710;9.024;2023-04-01T05:15:21;1.90;;;0.90;;
15667;SDS011;7934;48.710;9.024;2023-04-01T05:17:48;2.40;;;1.10;;
15667;SDS011;7934;48.710;9.024;2023-04-01T05:20:17;2.80;;;1.13;;
15667;SDS011;7934;48.710;9.024;2023-04-01T05:22:44;2.15;;;0.80;;
15667;SDS011;7934;48.710;9.024;2023-04-01T05:25:11;2.90;;;1.20;;
15667;SDS011;7934;48.710;9.024;2023-04-01T05:27:38;2.97;;;1.10;;
15667;SDS011;7934;48.710;9.024;2023-04-01T05:30:06;1.95;;;0.70;;
15667;SDS011;7934;48.710;9.024;2023-04-01T05:32:33;2.35;;;0.98;;
15667;SDS011;7934;48.710;9.024;2023-04-01T05:35:00;3.00;;;1.05;;
15667;SDS011;7934;48.710;9.024;2023-04-01T05:37:29;1.73;;;0.77;;
15667;SDS011;7934;48.710;9.024;2023-04-01T05:39:56;2.00;;;0.68;;
15667;SDS011;7934;48.710;9.024;2023-04-01T05:42:24;2.10;;;0.80;;
15667;SDS011;7934;48.710;9.024;2023-04-01T05:44:51;2.03;;;0.82;;
15667;SDS011;7934;48.710;9.024;2023-04-01T05:47:18;0.98;;;0.80;;
15667;SDS011;7934;48.710;9.024;2023-04-01T05:49:45;1.67;;;0.73;;
15667;SDS011;7934;48.710;9.024;2023-04-01T05:52:13;3.28;;;0.88;;
15667;SDS011;7934;48.710;9.024;2023-04-01T05:54:45;1.43;;;1.00;;
15667;SDS011;7934;48.710;9.024;2023-04-01T05:57:12;1.50;;;0.93;;
15667;SDS011;7934;48.710;9.024;2023-04-01T05:59:39;1.92;;;0.95;;
15667;SDS011;7934;48.710;9.024;2023-04-01T06:02:07;1.33;;;0.80;;
15667;SDS011;7934;48.710;9.024;2023-04-01T06:04:37;2.50;;;0.90;;
15667;SDS011;7934;48.710;9.024;2023-04-01T06:07:05;2.15;;;0.90;;
15667;SDS011;7934;48.710;9.024;2023-04-01T06:09:32;1.77;;;0.70;;
15667;SDS011;7934;48.710;9.024;2023-04-01T06:12:10;1.58;;;0.93;;
15667;SDS011;7934;48.710;9.024;2023-04-01T06:14:43;1.60;;;0.93;;
15667;SDS011;7934;48.710;9.024;2023-04-01T06:17:18;2.75;;;1.20;;
15667;SDS011;7934;48.710;9.024;2023-04-01T06:19:48;3.55;;;0.90;;
15667;SDS011;7934;48.710;9.024;2023-04-01T06:22:22;1.90;;;0.88;;
15667;SDS011;7934;48.710;9.024;2023-04-01T06:25:02;1.90;;;0.90;;
15667;SDS011;7934;48.710;9.024;2023-04-01T06:27:39;1.10;;;0.80;;
15667;SDS011;7934;48.710;9.024;2023-04-01T06:30:18;1.40;;;0.80;;
15667;SDS011;7934;48.710;9.024;2023-04-01T06:33:06;2.08;;;0.80;;
15667;SDS011;7934;48.710;9.024;2023-04-01T06:35:38;1.65;;;0.90;;
15667;SDS011;7934;48.710;9.024;2023-04-01T06:38:11;2.93;;;1.00;;
15667;SDS011;7934;48.710;9.024;2023-04-01T06:40:46;1.60;;;0.90;;
15667;SDS011;7934;48.710;9.024;2023-04-01T06:43:21;1.70;;;0.70;;
15667;SDS011;7934;48.710;9.024;2023-04-01T06:45:53;1.00;;;0.80;;
15667;SDS011;7934;48.710;9.024;2023-04-01T06:48:30;1.30;;;0.90;;
15667;SDS011;7934;48.710;9.024;2023-04-01T06:51:01;1.60;;;0.80;;
15667;SDS011;7934;48.710;9.024;2023-04-01T06:53:30;1.67;;;0.90;;
15667;SDS011;7934;48.710;9.024;2023-04-01T06:56:02;1.30;;;0.80;;
15667;SDS011;7934;48.710;9.024;2023-04-01T06:58:35;0.90;;;0.70;;
15667;SDS011;7934;48.710;9.024;2023-04-01T07:01:04;2.90;;;0.80;;
15667;SDS011;7934;48.710;9.024;2023-04-01T07:03:33;1.52;;;0.60;;
15667;SDS011;7934;48.710;9.024;2023-04-01T07:06:02;1.45;;;0.90;;
15667;SDS011;7934;48.710;9.024;2023-04-01T07:08:30;3.03;;;0.70;;
15667;SDS011;7934;48.710;9.024;2023-04-01T07:11:00;1.30;;;0.90;;
15667;SDS011;7934;48.710;9.024;2023-04-01T07:13:31;1.35;;;0.90;;
15667;SDS011;7934;48.710;9.024;2023-04-01T07:16:07;2.03;;;1.20;;
15667;SDS011;7934;48.710;9.024;2023-04-01T07:18:37;1.52;;;0.77;;
15667;SDS011;7934;48.710;9.024;2023-04-01T07:21:05;1.88;;;1.10;;
15667;SDS011;7934;48.710;9.024;2023-04-01T07:23:38;1.48;;;0.70;;
15667;SDS011;7934;48.710;9.024;2023-04-01T07:26:11;1.98;;;0.88;;
15667;SDS011;7934;48.710;9.024;2023-04-01T07:28:41;1.10;;;0.90;;
15667;SDS011;7934;48.710;9.024;2023-04-01T07:31:13;0.80;;;0.70;;
15667;SDS011;7934;48.710;9.024;2023-04-01T07:33:43;1.52;;;0.90;;
15667;SDS011;7934;48.710;9.024;2023-04-01T07:36:13;1.85;;;1.02;;
15667;SDS011;7934;48.710;9.024;2023-04-01T07:38:47;1.10;;;0.77;;
15667;SDS011;7934;48.710;9.024;2023-04-01T07:41:16;2.35;;;1.33;;
15667;SDS011;7934;48.710;9.024;2023-04-01T07:43:53;1.58;;;1.10;;
15667;SDS011;7934;48.710;9.024;2023-04-01T07:46:29;2.10;;;0.80;;
15667;SDS011;7934;48.710;9.024;2023-04-01T07:49:01;2.92;;;1.13;;
15667;SDS011;7934;48.710;9.024;2023-04-01T07:51:31;2.38;;;0.90;;
15667;SDS011;7934;48.710;9.024;2023-04-01T07:54:01;1.48;;;0.88;;
15667;SDS011;7934;48.710;9.024;2023-04-01T07:56:30;2.05;;;0.90;;
15667;SDS011;7934;48.710;9.024;2023-04-01T07:59:01;3.22;;;0.93;;
15667;SDS011;7934;48.710;9.024;2023-04-01T08:01:32;3.13;;;1.00;;
15667;SDS011;7934;48.710;9.024;2023-04-01T08:04:05;2.22;;;0.85;;
15667;SDS011;7934;48.710;9.024;2023-04-01T08:06:35;2.20;;;1.07;;
15667;SDS011;7934;48.710;9.024;2023-04-01T08:09:05;1.17;;;0.77;;
15667;SDS011;7934;48.710;9.024;2023-04-01T08:11:41;2.13;;;1.70;;
15667;SDS011;7934;48.710;9.024;2023-04-01T08:14:13;1.80;;;1.20;;
15667;SDS011;7934;48.710;9.024;2023-04-01T08:16:46;1.65;;;0.68;;
15667;SDS011;7934;48.710;9.024;2023-04-01T08:19:21;1.55;;;1.00;;
15667;SDS011;7934;48.710;9.024;2023-04-01T08:21:52;0.90;;;0.80;;
15667;SDS011;7934;48.710;9.024;2023-04-01T08:24:23;1.13;;;0.82;;
15667;SDS011;7934;48.710;9.024;2023-04-01T08:26:53;1.95;;;0.90;;
15667;SDS011;7934;48.710;9.024;2023-04-01T08:29:22;2.30;;;0.93;;
15667;SDS011;7934;48.710;9.024;2023-04-01T08:31:53;2.55;;;0.70;;
15667;SDS011;7934;48.710;9.024;2023-04-01T08:34:23;3.00;;;1.17;;
15667;SDS011;7934;48.710;9.024;2023-04-01T08:36:51;2.50;;;0.70;;
15667;SDS011;7934;48.710;9.024;2023-04-01T08:39:21;2.00;;;1.08;;
15667;SDS011;7934;48.710;9.024;2023-04-01T08:42:07;4.25;;;1.40;;
15667;SDS011;7934;48.710;9.024;2023-04-01T08:44:39;2.10;;;0.93;;
15667;SDS011;7934;48.710;9.024;2023-04-01T08:47:18;2.10;;;0.90;;
15667;SDS011;7934;48.710;9.024;2023-04-01T08:49:57;3.17;;;0.95;;
15667;SDS011;7934;48.710;9.024;2023-04-01T08:52:34;1.70;;;0.82;;
15667;SDS011;7934;48.710;9.024;2023-04-01T08:55:15;2.30;;;1.00;;
15667;SDS011;7934;48.710;9.024;2023-04-01T08:57:51;1.58;;;0.90;;
15667;SDS011;7934;48.710;9.024;2023-04-01T09:00:23;2.17;;;1.10;;
15667;SDS011;7934;48.710;9.024;2023-04-01T09:03:00;1.50;;;0.88;;
15667;SDS011;7934;48.710;9.024;2023-04-01T09:05:44;2.75;;;0.70;;
15667;SDS011;7934;48.710;9.024;2023-04-01T09:08:27;2.88;;;0.90;;
15667;SDS011;7934;48.710;9.024;2023-04-01T09:10:56;0.93;;;0.80;;
15667;SDS011;7934;48.710;9.024;2023-04-01T09:13:29;3.60;;;0.80;;
15667;SDS011;7934;48.710;9.024;2023-04-01T09:16:08;1.48;;;0.90;;
15667;SDS011;7934;48.710;9.024;2023-04-01T09:21:56;0.60;;;0.60;;
15667;SDS011;7934;48.710;9.024;2023-04-01T09:24:31;1.00;;;0.70;;
15667;SDS011;7934;48.710;9.024;2023-04-01T09:27:03;0.40;;;0.40;;
15667;SDS011;7934;48.710;9.024;2023-04-01T09:29:45;0.73;;;0.55;;
15667;SDS011;7934;48.710;9.024;2023-04-01T09:32:22;0.57;;;0.20;;
15667;SDS011;7934;48.710;9.024;2023-04-01T09:34:54;1.10;;;0.47;;
15667;SDS011;7934;48.710;9.024;2023-04-01T09:37:25;0.45;;;0.45;;
15667;SDS011;7934;48.710;9.024;2023-04-01T09:42:43;0.50;;;0.47;;
15667;SDS011;7934;48.710;9.024;2023-04-01T09:45:16;1.30;;;0.28;;
15667;SDS011;7934;48.710;9.024;2023-04-01T09:47:51;0.40;;;0.40;;
15667;SDS011;7934;48.710;9.024;2023-04-01T09:50:27;0.50;;;0.35;;
15667;SDS011;7934;48.710;9.024;2023-04-01T09:53:00;1.20;;;0.50;;
15667;SDS011;7934;48.710;9.024;2023-04-01T09:55:40;0.50;;;0.50;;
15667;SDS011;7934;48.710;9.024;2023-04-01T09:58:25;1.00;;;0.65;;
15667;SDS011;7934;48.710;9.024;2023-04-01T10:03:54;0.47;;;0.47;;
15667;SDS011;7934;48.710;9.024;2023-04-01T10:09:19;0.80;;;0.50;;
15667;SDS011;7934;48.710;9.024;2023-04-01T10:17:41;0.47;;;0.40;;
15667;SDS011;7934;48.710;9.024;2023-04-01T10:20:17;0.20;;;0.20;;
15667;SDS011;7934;48.710;9.024;2023-04-01T10:25:36;0.73;;;0.70;;
15667;SDS011;7934;48.710;9.024;2023-04-01T10:36:52;0.37;;;0.37;;
15667;SDS011;7934;48.710;9.024;2023-04-01T10:39:29;1.00;;;0.40;;
15667;SDS011;7934;48.710;9.024;2023-04-01T10:42:20;1.33;;;0.30;;
15667;SDS011;7934;48.710;9.024;2023-04-01T10:45:17;0.50;;;0.50;;
15667;SDS011;7934;48.710;9.024;2023-04-01T10:53:31;0.30;;;0.30;;
15667;SDS011;7934;48.710;9.024;2023-04-01T10:59:06;0.40;;;0.40;;
15667;SDS011;7934;48.710;9.024;2023-04-01T11:01:48;0.30;;;0.30;;
15667;SDS011;7934;48.710;9.024;2023-04-01T11:04:33;0.35;;;0.35;;
15667;SDS011;7934;48.710;9.024;2023-04-01T11:12:56;0.40;;;0.40;;
15667;SDS011;7934;48.710;9.024;2023-04-01T11:15:38;0.40;;;0.28;;
15667;SDS011;7934;48.710;9.024;2023-04-01T11:18:27;0.68;;;0.28;;
15667;SDS011;7934;48.710;9.024;2023-04-01T11:21:09;0.40;;;0.35;;
15667;SDS011;7934;48.710;9.024;2023-04-01T11:23:45;0.40;;;0.40;;
15667;SDS011;7934;48.710;9.024;2023-04-01T11:26:21;0.30;;;0.30;;
15667;SDS011;7934;48.710;9.024;2023-04-01T11:31:42;0.30;;;0.30;;
15667;SDS011;7934;48.710;9.024;2023-04-01T11:34:23;0.50;;;0.47;;
15667;SDS011;7934;48.710;9.024;2023-04-01T11:36:54;0.40;;;0.35;;
15667;SDS011;7934;48.710;9.024;2023-04-01T11:39:26;0.40;;;0.40;;
15667;SDS011;7934;48.710;9.024;2023-04-01T11:41:58;0.57;;;0.50;;
15667;SDS011;7934;48.710;9.024;2023-04-01T11:44:28;0.30;;;0.30;;
15667;SDS011;7934;48.710;9.024;2023-04-01T11:47:02;0.35;;;0.35;;
15667;SDS011;7934;48.710;9.024;2023-04-01T11:49:36;0.30;;;0.30;;
15667;SDS011;7934;48.710;9.024;2023-04-01T11:52:31;0.50;;;0.47;;
15667;SDS011;7934;48.710;9.024;2023-04-01T11:55:02;0.40;;;0.40;;
15667;SDS011;7934;48.710;9.024;2023-04-01T11:57:35;0.40;;;0.40;;
15667;SDS011;7934;48.710;9.024;2023-04-01T12:00:18;0.43;;;0.43;;
15667;SDS011;7934;48.710;9.024;2023-04-01T12:02:51;0.40;;;0.40;;
15667;SDS011;7934;48.710;9.024;2023-04-01T12:05:24;0.80;;;0.50;;
15667;SDS011;7934;48.710;9.024;2023-04-01T12:07:55;0.40;;;0.40;;
15667;SDS011;7934;48.710;9.024;2023-04-01T12:10:26;0.28;;;0.28;;
15667;SDS011;7934;48.710;9.024;2023-04-01T12:12:55;0.70;;;0.30;;
15667;SDS011;7934;48.710;9.024;2023-04-01T12:15:29;0.70;;;0.40;;
15667;SDS011;7934;48.710;9.024;2023-04-01T12:18:03;0.50;;;0.25;;
15667;SDS011;7934;48.710;9.024;2023-04-01T12:20:36;0.30;;;0.30;;
15667;SDS011;7934;48.710;9.024;2023-04-01T12:23:09;0.30;;;0.30;;
15667;SDS011;7934;48.710;9.024;2023-04-01T12:25:48;0.50;;;0.50;;
15667;SDS011;7934;48.710;9.024;2023-04-01T12:28:20;0.25;;;0.25;;
15667;SDS011;7934;48.710;9.024;2023-04-01T12:30:51;0.80;;;0.30;;
15667;SDS011;7934;48.710;9.024;2023-04-01T12:33:35;0.90;;;0.40;;
15667;SDS011;7934;48.710;9.024;2023-04-01T12:36:06;0.23;;;0.23;;
15667;SDS011;7934;48.710;9.024;2023-04-01T12:38:39;0.70;;;0.40;;
15667;SDS011;7934;48.710;9.024;2023-04-01T12:41:09;0.60;;;0.40;;
15667;SDS011;7934;48.710;9.024;2023-04-01T12:43:49;0.30;;;0.30;;
15667;SDS011;7934;48.710;9.024;2023-04-01T12:46:22;0.20;;;0.20;;
15667;SDS011;7934;48.710;9.024;2023-04-01T12:49:12;1.10;;;0.32;;
15667;SDS011;7934;48.710;9.024;2023-04-01T12:51:51;0.30;;;0.30;;
15667;SDS011;7934;48.710;9.024;2023-04-01T12:57:10;1.00;;;0.40;;
15667;SDS011;7934;48.710;9.024;2023-04-01T12:59:45;0.27;;;0.27;;
15667;SDS011;7934;48.710;9.024;2023-04-01T13:02:21;0.20;;;0.20;;
15667;SDS011;7934;48.710;9.024;2023-04-01T13:04:59;0.70;;;0.40;;
15667;SDS011;7934;48.710;9.024;2023-04-01T13:10:13;0.20;;;0.20;;
15667;SDS011;7934;48.710;9.024;2023-04-01T13:12:56;0.45;;;0.20;;
15667;SDS011;7934;48.710;9.024;2023-04-01T13:15:28;0.40;;;0.20;;
15667;SDS011;7934;48.710;9.024;2023-04-01T13:17:58;0.30;;;0.30;;
15667;SDS011;7934;48.710;9.024;2023-04-01T13:20:35;0.28;;;0.28;;
15667;SDS011;7934;48.710;9.024;2023-04-01T13:23:06;0.22;;;0.22;;
15667;SDS011;7934;48.710;9.024;2023-04-01T13:25:36;0.38;;;0.38;;
15667;SDS011;7934;48.710;9.024;2023-04-01T13:28:08;0.40;;;0.40;;
15667;SDS011;7934;48.710;9.024;2023-04-01T13:30:38;0.40;;;0.40;;
15667;SDS011;7934;48.710;9.024;2023-04-01T13:33:12;0.40;;;0.40;;
15667;SDS011;7934;48.710;9.024;2023-04-01T13:35:45;0.45;;;0.45;;
15667;SDS011;7934;48.710;9.024;2023-04-01T13:38:20;0.47;;;0.40;;
15667;SDS011;7934;48.710;9.024;2023-04-01T13:40:51;0.43;;;0.38;;
15667;SDS011;7934;48.710;9.024;2023-04-01T13:43:22;0.40;;;0.40;;
15667;SDS011;7934;48.710;9.024;2023-04-01T13:45:56;0.30;;;0.30;;
15667;SDS011;7934;48.710;9.024;2023-04-01T13:48:26;0.60;;;0.30;;
15667;SDS011;7934;48.710;9.024;2023-04-01T13:56:50;0.30;;;0.30;;
15667;SDS011;7934;48.710;9.024;2023-04-01T13:59:29;0.30;;;0.30;;
15667;SDS011;7934;48.710;9.024;2023-04-01T14:01:59;0.65;;;0.65;;
15667;SDS011;7934;48.710;9.024;2023-04-01T14:04:39;0.38;;;0.30;;
15667;SDS011;7934;48.710;9.024;2023-04-01T14:07:22;0.70;;;0.30;;
15667;SDS011;7934;48.710;9.024;2023-04-01T14:09:55;0.50;;;0.50;;
15667;SDS011;7934;48.710;9.024;2023-04-01T14:12:31;0.60;;;0.60;;
15667;SDS011;7934;48.710;9.024;2023-04-01T14:15:07;0.35;;;0.35;;
15667;SDS011;7934;48.710;9.024;2023-04-01T14:17:43;1.50;;;0.38;;
15667;SDS011;7934;48.710;9.024;2023-04-01T14:20:22;0.50;;;0.50;;
15667;SDS011;7934;48.710;9.024;2023-04-01T14:22:56;1.10;;;0.65;;
15667;SDS011;7934;48.710;9.024;2023-04-01T14:25:32;0.75;;;0.75;;
15667;SDS011;7934;48.710;9.024;2023-04-01T14:28:06;0.30;;;0.30;;
15667;SDS011;7934;48.710;9.024;2023-04-01T14:30:39;0.60;;;0.60;;
15667;SDS011;7934;48.710;9.024;2023-04-01T14:33:12;1.63;;;0.55;;
15667;SDS011;7934;48.710;9.024;2023-04-01T14:35:46;0.50;;;0.40;;
15667;SDS011;7934;48.710;9.024;2023-04-01T14:38:23;0.38;;;0.38;;
15667;SDS011;7934;48.710;9.024;2023-04-01T14:40:55;0.60;;;0.60;;
15667;SDS011;7934;48.710;9.024;2023-04-01T14:46:28;0.30;;;0.30;;
15667;SDS011;7934;48.710;9.024;2023-04-01T14:49:02;0.50;;;0.50;;
15667;SDS011;7934;48.710;9.024;2023-04-01T14:51:31;0.60;;;0.20;;
15667;SDS011;7934;48.710;9.024;2023-04-01T14:54:00;0.20;;;0.20;;
15667;SDS011;7934;48.710;9.024;2023-04-01T14:56:36;0.38;;;0.38;;
15667;SDS011;7934;48.710;9.024;2023-04-01T14:59:04;0.73;;;0.73;;
15667;SDS011;7934;48.710;9.024;2023-04-01T15:01:37;0.32;;;0.32;;
15667;SDS011;7934;48.710;9.024;2023-04-01T15:04:10;1.40;;;0.50;;
15667;SDS011;7934;48.710;9.024;2023-04-01T15:06:45;0.30;;;0.30;;
15667;SDS011;7934;48.710;9.024;2023-04-01T15:09:17;0.32;;;0.32;;
15667;SDS011;7934;48.710;9.024;2023-04-01T15:11:51;1.80;;;0.55;;
15667;SDS011;7934;48.710;9.024;2023-04-01T15:14:29;0.70;;;0.50;;
15667;SDS011;7934;48.710;9.024;2023-04-01T15:17:13;1.00;;;1.00;;
15667;SDS011;7934;48.710;9.024;2023-04-01T15:19:47;0.80;;;0.80;;
15667;SDS011;7934;48.710;9.024;2023-04-01T15:22:26;1.08;;;0.90;;
15667;SDS011;7934;48.710;9.024;2023-04-01T15:25:03;0.50;;;0.50;;
15667;SDS011;7934;48.710;9.024;2023-04-01T15:27:34;1.00;;;1.00;;
15667;SDS011;7934;48.710;9.024;2023-04-01T15:33:01;1.00;;;0.90;;
15667;SDS011;7934;48.710;9.024;2023-04-01T15:35:35;0.70;;;0.70;;
15667;SDS011;7934;48.710;9.024;2023-04-01T15:38:05;1.20;;;0.55;;
15667;SDS011;7934;48.710;9.024;2023-04-01T15:40:36;0.70;;;0.70;;
15667;SDS011;7934;48.710;9.024;2023-04-01T15:43:09;0.60;;;0.60;;
15667;SDS011;7934;48.710;9.024;2023-04-01T15:45:45;1.20;;;0.60;;
15667;SDS011;7934;48.710;9.024;2023-04-01T15:53:59;2.22;;;1.58;;
15667;SDS011;7934;48.710;9.024;2023-04-01T15:56:30;1.20;;;1.20;;
15667;SDS011;7934;48.710;9.024;2023-04-01T15:59:09;1.70;;;1.60;;
15667;SDS011;7934;48.710;9.024;2023-04-01T16:01:44;0.40;;;0.40;;
15667;SDS011;7934;48.710;9.024;2023-04-01T16:07:10;0.52;;;0.52;;
15667;SDS011;7934;48.710;9.024;2023-04-01T16:09:42;1.00;;;1.00;;
15667;SDS011;7934;48.710;9.024;2023-04-01T16:12:13;0.73;;;0.70;;
15667;SDS011;7934;48.710;9.024;2023-04-01T16:14:44;1.30;;;1.20;;
15667;SDS011;7934;48.710;9.024;2023-04-01T16:17:18;2.20;;;2.10;;
15667;SDS011;7934;48.710;9.024;2023-04-01T16:19:51;2.60;;;0.80;;
15667;SDS011;7934;48.710;9.024;2023-04-01T16:22:20;1.90;;;1.60;;
15667;SDS011;7934;48.710;9.024;2023-04-01T16:24:52;1.73;;;1.30;;
15667;SDS011;7934;48.710;9.024;2023-04-01T16:27:24;1.02;;;0.75;;
15667;SDS011;7934;48.710;9.024;2023-04-01T16:29:53;1.88;;;1.05;;
15667;SDS011;7934;48.710;9.024;2023-04-01T16:32:22;2.25;;;1.95;;
15667;SDS011;7934;48.710;9.024;2023-04-01T16:34:56;1.83;;;0.90;;
15667;SDS011;7934;48.710;9.024;2023-04-01T16:37:29;0.63;;;0.63;;
15667;SDS011;7934;48.710;9.024;2023-04-01T16:40:03;3.63;;;0.88;;
15667;SDS011;7934;48.710;9.024;2023-04-01T16:42:39;0.70;;;0.70;;
15667;SDS011;7934;48.710;9.024;2023-04-01T16:45:15;0.95;;;0.88;;